McGill, NV (89318)

11:09 AM PDT on April 28, 2017 (GMT -0700)
Ely | | Change Station

Elev 6260 ft 39.30 °N, 114.84 °W | Updated 9 minutes ago

Mostly Cloudy
Mostly Cloudy
37 °F
Feels Like 28 °F
N
16
Wind Variable Wind from NNE
Gusts 23 mph

Today
High -- | Low -- °F
--% Chance of Precip.
Yesterday
High -- | Low -- °F
Precip. -- in
Pressure 29.96 in
Visibility 10.0 miles
Clouds Few 5000 ft
Scattered Clouds 6000 ft
Mostly Cloudy 10000 ft
Windchill 28 °F
Dew Point 25 °F
Humidity 62%
Rainfall 0.00 in
Snow Depth Not available.
5:43 AM 7:30 PM
Waxing Crescent, 7% visible
SPECI KELY 281800Z AUTO 03014G20KT 10SM FEW050 SCT060 BKN100 03/M04 A2996 RMK AO2 WSHFT 1740 T00281039
Pressure 29.96 in
Visibility 10.0 miles
Clouds Few 5000 ft
Scattered Clouds 6000 ft
Mostly Cloudy 10000 ft
Windchill 28 °F
Dew Point 25 °F
Humidity 62%
Rainfall 0.00 in
Snow Depth Not available.
5:43 AM 7:30 PM
Waxing Crescent, 7% visible
SPECI KELY 281800Z AUTO 03014G20KT 10SM FEW050 SCT060 BKN100 03/M04 A2996 RMK AO2 WSHFT 1740 T00281039

Get Severe Weather Alerts

Thanks for signing up!

Be on the lookout for a verification email in your inbox.

You'll start receiving the daily forecast at 8 AM.

×

10-Day Weather Forecast

Almanac

Astronomy

Apr. 28, 2017 Rise Set
Actual Time
Civil Twilight
Nautical Twilight
Astronomical Twilight
Moon
Length of Visible Light
Length of Day
Tomorrow will be .
, % of the Moon is Illuminated

Today's Extremes

State Highs State Lows

Community

WunderPhotos

WunderBlog® & News

Nearby

Air Quality

  Air Quality AQ Index Pollutant
Not available.

Snow Depth

Station Depth Elevation

Earthquake Activity

City Distance Mag. Time & Date
Minimum magnitude displayed is 2.5.

Coastal Water Temperatures

Place Temperature

Stations

Nearby Weather Stations

Station Location Temp. Windchill Dew Point Humidity Wind Precip. Elev Updated Type
                   

Watches & Warnings

There are currently no watches in effect.